Time;durP1;ratioP1;P1;durP2;ratioP2;P2;SDS_P1;SDS_P2;PMS_P1;PMS_P2;Temp;Humidity;BMP_temperature;BMP_pressure;BME280_temperature;BME280_humidity;BME280_pressure;Samples;Min_cycle;Max_cycle;Signal;HPM_P1;HPM_P2
2021/07/23 00:03:53;;;;;;;;;;;20.00;99.90;;;18.80;65.66;95805.03;10289900;28;1960;-87
2021/07/23 00:09:07;;;;;;;;;;;19.80;99.90;;;18.72;66.61;95801.22;10288888;28;2086;-84
2021/07/23 00:14:11;;;;;;;;;;;19.80;99.90;;;18.55;66.85;95796.56;10299644;28;2703;-86
2021/07/23 00:19:15;;;;;;;;;;;19.60;99.90;;;18.50;66.82;95790.50;10254823;29;2510;-87
2021/07/23 00:24:22;;;;;;;;;;;19.50;99.90;;;18.36;68.87;95788.78;10274266;28;2042;-87
2021/07/23 00:29:25;;;;;;;;;;;19.50;99.90;;;18.29;68.71;95790.38;10273638;28;2269;-87
2021/07/23 00:34:29;;;;;;;;;;;19.40;99.90;;;18.17;69.61;95792.97;10266374;28;2068;-87
2021/07/23 00:39:36;;;;;;;;;;;19.30;99.90;;;18.08;69.95;95784.81;10258862;29;1400;-86
2021/07/23 00:44:41;;;;;;;;;;;19.10;99.90;;;17.95;72.21;95785.78;10248554;28;1922;-86
2021/07/23 00:49:45;;;;;;;;;;;19.10;99.90;;;17.92;71.94;95781.75;10247729;29;1733;-87
2021/07/23 00:54:49;;;;;;;;;;;19.00;99.90;;;17.89;72.34;95771.53;10278528;28;2423;-87
2021/07/23 00:59:53;;;;;;;;;;;19.00;99.90;;;17.75;72.56;95774.41;10297979;28;2006;-88
2021/07/23 01:04:57;;;;;;;;;;;18.90;99.90;;;17.75;74.06;95776.31;10282449;28;2155;-86
2021/07/23 01:10:04;;;;;;;;;;;18.80;99.90;;;17.66;74.09;95768.13;10280402;28;2299;-86
2021/07/23 01:15:07;;;;;;;;;;;18.70;99.90;;;17.54;74.65;95766.03;10274723;28;1814;-86
2021/07/23 01:20:14;;;;;;;;;;;18.70;99.90;;;17.40;75.74;95764.59;10234197;29;1289;-86
2021/07/23 01:25:18;;;;;;;;;;;18.50;99.90;;;17.33;76.64;95764.25;10257309;28;2390;-87
2021/07/23 01:30:22;;;;;;;;;;;18.50;99.90;;;17.29;76.96;95764.88;10263484;29;1891;-88
2021/07/23 01:35:26;;;;;;;;;;;18.30;99.90;;;17.31;76.82;95761.06;10262373;28;2642;-87
2021/07/23 01:40:30;;;;;;;;;;;18.30;99.90;;;17.27;77.29;95761.69;10261224;29;1554;-87
2021/07/23 01:45:35;;;;;;;;;;;18.30;99.90;;;17.22;77.81;95764.53;10244826;29;2497;-88
2021/07/23 01:50:42;;;;;;;;;;;18.30;99.90;;;17.21;78.37;95762.94;10256151;29;2550;-86
2021/07/23 01:55:46;;;;;;;;;;;18.30;99.90;;;17.26;78.96;95765.50;10264215;28;2172;-88
2021/07/23 02:00:49;;;;;;;;;;;18.20;99.90;;;17.24;78.43;95753.34;10255261;29;2096;-86
2021/07/23 02:05:53;;;;;;;;;;;18.20;99.90;;;17.35;79.23;95751.13;10272546;28;2612;-87
2021/07/23 02:10:57;;;;;;;;;;;18.20;99.90;;;17.42;78.52;95748.75;10252805;28;2529;-88
2021/07/23 02:16:01;;;;;;;;;;;18.30;99.90;;;17.48;79.80;95750.19;10263856;28;1316;-85
2021/07/23 02:21:05;;;;;;;;;;;18.30;99.90;;;17.58;79.51;95763.50;10247741;29;2472;-88
2021/07/23 02:26:09;;;;;;;;;;;18.40;99.90;;;17.69;78.93;95758.56;10251525;28;1953;-87
2021/07/23 02:31:12;;;;;;;;;;;18.50;99.90;;;17.63;79.94;95757.91;10256458;29;2142;-87
2021/07/23 02:36:15;;;;;;;;;;;18.50;99.90;;;17.67;79.87;95755.34;10245331;29;2617;-88
2021/07/23 02:41:19;;;;;;;;;;;18.60;99.90;;;17.62;79.68;95748.13;10271160;28;2145;-87
2021/07/23 02:46:22;;;;;;;;;;;18.50;99.90;;;17.58;80.23;95747.19;10274937;28;1993;-88
2021/07/23 02:51:26;;;;;;;;;;;18.50;99.90;;;17.54;80.37;95748.94;10277048;29;1363;-88
2021/07/23 02:56:33;;;;;;;;;;;18.40;99.90;;;17.62;80.43;95755.47;10275461;29;2009;-87
2021/07/23 03:01:37;;;;;;;;;;;18.50;99.90;;;17.77;80.25;95761.28;10298064;28;2542;-87
2021/07/23 03:06:41;;;;;;;;;;;18.60;99.90;;;17.76;80.08;95754.25;10297326;28;2200;-87
2021/07/23 03:11:45;;;;;;;;;;;18.60;99.90;;;17.78;80.08;95752.00;10302047;28;1883;-87
2021/07/23 03:16:49;;;;;;;;;;;18.60;99.90;;;17.74;80.38;95748.31;10297345;28;2318;-85
2021/07/23 03:21:53;;;;;;;;;;;18.60;99.90;;;17.70;80.40;95741.91;10298401;28;1953;-87
2021/07/23 03:26:57;;;;;;;;;;;18.60;99.90;;;17.64;80.64;95740.47;10290003;28;2686;-87
2021/07/23 03:32:00;;;;;;;;;;;18.60;99.90;;;17.58;81.32;95736.31;10251967;29;2663;-87
2021/07/23 03:37:05;;;;;;;;;;;18.50;99.90;;;17.57;81.40;95745.59;10273448;28;1348;-87
2021/07/23 03:42:09;;;;;;;;;;;18.50;99.90;;;17.60;81.52;95747.66;10270121;29;2201;-86
2021/07/23 03:47:15;;;;;;;;;;;18.50;99.90;;;17.54;81.38;95733.41;10280929;28;2110;-88
2021/07/23 03:52:20;;;;;;;;;;;18.50;99.90;;;17.48;81.19;95731.19;10241282;28;2477;-88
2021/07/23 03:57:23;;;;;;;;;;;18.40;99.90;;;17.49;81.21;95735.50;10269262;29;1717;-89
2021/07/23 04:02:29;;;;;;;;;;;18.40;99.90;;;17.60;81.00;95731.34;10283189;28;2647;-88
2021/07/23 04:07:33;;;;;;;;;;;18.40;99.90;;;17.69;80.91;95739.53;10248997;29;2140;-87
2021/07/23 04:12:38;;;;;;;;;;;18.40;99.90;;;17.74;79.24;95726.56;10266194;28;2134;-88
2021/07/23 04:17:44;;;;;;;;;;;18.60;99.90;;;17.71;79.64;95734.56;10272280;28;1875;-87
2021/07/23 04:22:48;;;;;;;;;;;18.60;99.90;;;17.76;79.69;95734.44;10264688;28;2578;-88
2021/07/23 04:27:52;;;;;;;;;;;18.60;99.90;;;17.75;79.52;95747.22;10294286;28;2465;-87
2021/07/23 04:32:55;;;;;;;;;;;18.60;99.90;;;17.79;79.89;95747.38;10285238;28;1948;-87
2021/07/23 04:37:59;;;;;;;;;;;18.70;99.90;;;17.94;79.00;95754.25;10300156;28;1867;-88
2021/07/23 04:43:03;;;;;;;;;;;18.80;99.90;;;18.05;78.51;95753.59;10263747;28;1415;-86
2021/07/23 04:48:08;;;;;;;;;;;18.80;99.90;;;18.30;76.98;95745.72;10275038;28;2013;-86
2021/07/23 04:53:14;;;;;;;;;;;19.00;99.90;;;18.32;77.28;95755.19;10292998;28;2509;-88
2021/07/23 04:58:18;;;;;;;;;;;19.00;99.90;;;18.06;78.31;95748.94;10295890;28;2440;-88
2021/07/23 05:03:25;;;;;;;;;;;19.10;99.90;;;18.30;77.85;95738.34;10286753;28;2199;-85
2021/07/23 05:08:31;;;;;;;;;;;19.10;99.90;;;18.55;76.74;95738.63;10297631;28;2394;-87
2021/07/23 05:13:35;;;;;;;;;;;19.20;99.90;;;18.77;76.03;95734.91;10241977;29;2745;-89
2021/07/23 05:18:39;;;;;;;;;;;19.40;99.90;;;19.07;74.64;95743.88;10278411;28;2291;-86
2021/07/23 05:23:47;;;;;;;;;;;19.70;99.90;;;19.17;73.25;95744.31;10262004;28;2457;-89
2021/07/23 05:28:51;;;;;;;;;;;19.80;99.90;;;19.68;71.46;95749.81;10275736;28;2211;-87
2021/07/23 05:33:57;;;;;;;;;;;20.00;99.90;;;20.22;68.34;95745.16;10269404;28;2254;-88
2021/07/23 05:39:00;;;;;;;;;;;20.40;99.90;;;20.68;66.86;95745.22;10289543;28;2215;-87
2021/07/23 05:44:04;;;;;;;;;;;20.80;99.90;;;21.17;64.18;95750.69;10303163;28;2204;-87
2021/07/23 05:49:11;;;;;;;;;;;21.30;99.90;;;21.62;63.08;95747.03;10312150;28;1891;-86
2021/07/23 05:54:15;;;;;;;;;;;21.70;99.90;;;22.16;61.65;95749.44;10295453;28;2287;-86
2021/07/23 05:59:22;;;;;;;;;;;22.10;99.90;;;22.35;60.44;95749.59;10282124;28;1772;-87
2021/07/23 06:04:26;;;;;;;;;;;22.60;99.90;;;22.42;60.98;95747.03;10274941;28;3311;-89
2021/07/23 06:09:32;;;;;;;;;;;22.70;99.90;;;22.89;59.31;95743.59;10264745;29;2267;-88
2021/07/23 06:14:35;;;;;;;;;;;23.10;99.90;;;22.44;60.33;95741.22;10285061;28;1344;-89
2021/07/23 06:19:39;;;;;;;;;;;23.20;99.90;;;23.17;58.77;95752.53;10270581;28;2308;-88
2021/07/23 06:24:44;;;;;;;;;;;23.40;99.90;;;23.55;57.37;95750.28;10247166;28;2283;-88
2021/07/23 06:29:53;;;;;;;;;;;23.70;99.90;;;23.44;57.44;95759.03;10264688;29;2385;-88
2021/07/23 06:34:59;;;;;;;;;;;24.00;99.90;;;23.94;56.10;95751.94;10300170;28;2039;-86
2021/07/23 06:40:02;;;;;;;;;;;24.40;99.90;;;24.24;54.93;95754.94;10279187;28;2322;-88
2021/07/23 06:45:15;;;;;;;;;;;24.50;99.90;;;24.12;55.02;95746.84;10295314;28;1848;-86
2021/07/23 06:50:24;;;;;;;;;;;24.60;99.90;;;24.59;54.37;95753.25;10279272;29;2268;-89
2021/07/23 06:55:27;;;;;;;;;;;24.70;99.90;;;24.17;54.52;95749.28;10269734;28;2510;-88
2021/07/23 07:00:34;;;;;;;;;;;24.80;99.90;;;24.15;54.84;95746.09;10301760;28;2404;-85
2021/07/23 07:05:37;;;;;;;;;;;24.70;99.90;;;24.19;55.24;95746.97;10293670;28;2249;-86
2021/07/23 07:10:41;;;;;;;;;;;24.50;99.90;;;23.48;58.33;95753.66;10307962;28;1947;-88
2021/07/23 07:15:45;;;;;;;;;;;24.40;99.90;;;23.63;57.08;95752.03;10286943;28;1288;-87
2021/07/23 07:20:49;;;;;;;;;;;24.20;99.90;;;23.44;57.99;95744.53;10301828;28;1356;-87
2021/07/23 07:25:56;;;;;;;;;;;24.00;99.90;;;23.96;56.96;95743.34;10302626;28;1973;-87
2021/07/23 07:31:01;;;;;;;;;;;24.10;99.90;;;24.30;54.68;95736.19;10292595;28;2344;-88
2021/07/23 07:36:05;;;;;;;;;;;24.50;99.90;;;24.37;54.25;95741.06;10303273;28;1895;-88
2021/07/23 07:41:11;;;;;;;;;;;24.80;99.90;;;24.28;53.92;95739.28;10279009;29;2203;-88
2021/07/23 07:46:15;;;;;;;;;;;24.80;99.90;;;24.51;54.93;95739.38;10280520;29;2383;-88
2021/07/23 07:51:20;;;;;;;;;;;24.90;99.90;;;25.01;52.48;95739.50;10302653;28;2264;-89
2021/07/23 07:56:24;;;;;;;;;;;25.30;99.90;;;24.88;53.12;95738.88;10309155;28;1685;-88
2021/07/23 08:01:38;;;;;;;;;;;25.30;99.90;;;24.97;52.43;95731.16;10283418;29;2354;-87
2021/07/23 08:07:00;;;;;;;;;;;25.60;99.90;;;25.07;51.15;95729.81;10290484;28;2061;-89
2021/07/23 08:12:05;;;;;;;;;;;25.60;99.90;;;25.91;49.00;95728.69;10292004;28;2061;-88
2021/07/23 08:17:15;;;;;;;;;;;26.00;99.90;;;25.19;48.95;95737.81;10308528;28;2294;-84
2021/07/23 08:27:40;;;;;;;;;;;26.20;99.90;;;26.37;46.30;95725.72;10302621;28;2137;-84
2021/07/23 08:33:04;;;;;;;;;;;26.60;99.90;;;26.04;46.51;95721.00;10278164;28;2418;-84
2021/07/23 08:38:07;;;;;;;;;;;26.70;99.90;;;25.30;47.94;95722.28;10276026;28;2403;-83
2021/07/23 08:43:10;;;;;;;;;;;26.50;99.90;;;25.63;47.32;95725.50;10284882;28;2621;-81
2021/07/23 08:48:12;;;;;;;;;;;26.40;99.90;;;26.16;45.73;95715.25;10278269;29;2482;-81
2021/07/23 08:53:15;;;;;;;;;;;26.40;99.90;;;25.50;48.27;95722.19;10297419;28;2217;-83
2021/07/23 09:15:45;;;;;;;;;;;27.10;99.90;;;25.48;45.94;95711.56;10483642;28;2427;-80
2021/07/23 09:20:50;;;;;;;;;;;26.70;99.90;;;26.03;45.01;95711.94;10477533;28;1189;-82
2021/07/23 09:25:53;;;;;;;;;;;26.70;99.90;;;26.24;43.91;95711.41;10483990;28;1898;-83
2021/07/23 09:30:56;;;;;;;;;;;26.90;99.90;;;26.22;44.68;95710.19;10485582;28;1738;-85
2021/07/23 09:36:02;;;;;;;;;;;26.90;99.90;;;26.26;44.62;95709.03;10482998;28;1362;-84
2021/07/23 09:41:05;;;;;;;;;;;27.10;99.90;;;25.47;46.65;95703.69;10480299;28;2538;-79
2021/07/23 09:46:07;;;;;;;;;;;26.80;99.90;;;26.17;44.87;95697.53;10472683;28;2483;-80
2021/07/23 09:51:10;;;;;;;;;;;26.90;99.90;;;27.17;42.57;95682.03;10480555;28;1620;-80
2021/07/23 09:56:13;;;;;;;;;;;27.40;99.90;;;27.46;40.90;95675.50;10472528;28;1749;-81
2021/07/23 10:01:18;;;;;;;;;;;27.90;97.10;;;26.31;41.72;95678.41;10533787;28;2219;-82
2021/07/23 10:11:41;;;;;;;;;;;27.30;97.70;;;26.95;42.74;95669.97;10499311;28;1695;-85
2021/07/23 10:22:03;;;;;;;;;;;27.60;95.50;;;26.67;44.01;95665.03;10475713;28;1628;-81
2021/07/23 10:27:27;;;;;;;;;;;27.40;97.90;;;26.07;43.46;95663.19;10499327;28;2379;-81
2021/07/23 10:32:31;;;;;;;;;;;27.30;95.70;;;27.54;39.33;95645.97;10475995;28;2261;-84
2021/07/23 10:43:09;;;;;;;;;;;28.00;95.00;;;26.19;42.44;95640.09;10481921;28;1976;-83
2021/07/23 10:48:11;;;;;;;;;;;27.30;94.10;;;27.32;40.53;95639.53;10493150;28;1883;-82
2021/07/23 10:53:14;;;;;;;;;;;27.50;94.10;;;27.14;40.20;95633.09;10486286;28;1729;-82
2021/07/23 10:58:19;;;;;;;;;;;27.90;93.10;;;27.28;39.83;95627.66;10492500;28;1198;-80
2021/07/23 11:03:28;;;;;;;;;;;27.80;92.00;;;27.98;38.89;95628.44;10477921;28;1252;-81
2021/07/23 11:08:37;;;;;;;;;;;29.50;90.50;;;28.00;39.63;95624.13;10472595;28;2365;-82
2021/07/23 11:13:49;;;;;;;;;;;29.20;90.30;;;26.46;43.27;95615.19;10469546;28;2337;-80
2021/07/23 11:18:52;;;;;;;;;;;28.40;91.50;;;26.79;41.82;95623.38;10472292;28;2752;-80
2021/07/23 11:23:54;;;;;;;;;;;27.90;90.70;;;27.01;39.53;95607.78;10492977;28;2315;-81
2021/07/23 11:29:05;;;;;;;;;;;27.70;90.50;;;27.72;38.30;95608.22;10470262;28;2360;-81
2021/07/23 11:34:08;;;;;;;;;;;28.50;89.10;;;27.74;38.99;95594.03;10471464;28;2309;-83
2021/07/23 11:39:11;;;;;;;;;;;28.80;88.40;;;28.49;38.32;95592.25;10455408;28;2321;-81
2021/07/23 11:44:14;;;;;;;;;;;29.30;88.60;;;27.76;38.50;95588.13;10481655;28;2324;-80
2021/07/23 11:49:17;;;;;;;;;;;29.20;87.60;;;28.11;38.26;95579.91;10470129;28;1914;-78
2021/07/23 11:54:20;;;;;;;;;;;29.10;86.60;;;29.11;34.43;95565.38;10459533;28;2348;-83
2021/07/23 11:59:22;;;;;;;;;;;29.30;83.80;;;29.70;34.88;95563.63;10456796;28;2355;-81
2021/07/23 12:04:26;;;;;;;;;;;30.00;84.70;;;30.07;34.08;95579.66;10467167;28;2328;-82
2021/07/23 12:09:28;;;;;;;;;;;30.60;82.70;;;29.05;34.52;95570.53;10484084;28;2410;-84
2021/07/23 12:14:31;;;;;;;;;;;30.50;80.10;;;27.67;37.53;95558.06;10511306;28;1580;-83
2021/07/23 12:19:34;;;;;;;;;;;29.30;82.00;;;26.54;40.86;95558.97;10522972;28;2269;-83
2021/07/23 12:24:37;;;;;;;;;;;28.30;85.00;;;27.58;37.70;95550.16;10478344;28;2376;-83
2021/07/23 12:29:40;;;;;;;;;;;28.20;84.50;;;27.60;38.26;95544.22;10492352;28;2478;-84
2021/07/23 12:34:43;;;;;;;;;;;28.50;83.70;;;27.73;38.31;95543.50;10493515;28;2299;-84
2021/07/23 12:39:45;;;;;;;;;;;28.60;84.10;;;27.14;38.63;95547.56;10498457;28;2264;-83
2021/07/23 12:44:50;;;;;;;;;;;28.10;84.00;;;26.38;39.83;95545.41;10509704;28;2379;-80
2021/07/23 12:49:52;;;;;;;;;;;27.80;84.10;;;26.43;39.56;95550.59;10484003;28;2333;-82
2021/07/23 12:54:55;;;;;;;;;;;27.40;84.60;;;27.30;38.61;95537.03;10501000;28;2272;-83
2021/07/23 12:59:58;;;;;;;;;;;27.60;85.00;;;28.26;35.88;95537.31;10478563;28;2388;-84
2021/07/23 13:05:01;;;;;;;;;;;28.40;83.20;;;29.14;35.24;95528.59;10492958;28;1936;-85
2021/07/23 13:10:04;;;;;;;;;;;29.30;82.90;;;29.16;35.04;95521.47;10491865;28;2011;-85
2021/07/23 13:15:06;;;;;;;;;;;29.90;80.70;;;27.76;36.71;95524.59;10482545;28;2355;-84
2021/07/23 13:20:09;;;;;;;;;;;29.40;79.50;;;28.43;34.50;95529.44;10483394;28;2392;-83
2021/07/23 13:25:12;;;;;;;;;;;29.40;78.70;;;29.24;31.75;95508.41;10483898;28;1358;-84
2021/07/23 13:30:17;;;;;;;;;;;29.60;77.00;;;28.99;34.70;95512.03;10494140;28;1870;-82
2021/07/23 13:41:16;;;;;;;;;;;29.50;77.50;;;29.45;32.17;95499.22;10494079;28;2137;-82
2021/07/23 13:46:19;;;;;;;;;;;30.00;76.60;;;29.02;32.25;95505.72;10500008;28;2169;-79
2021/07/23 13:51:22;;;;;;;;;;;30.20;74.90;;;28.93;32.81;95499.78;10478597;28;1966;-82
2021/07/23 13:56:26;;;;;;;;;;;29.80;74.90;;;29.44;32.68;95487.34;10487404;28;1249;-81
2021/07/23 14:01:29;;;;;;;;;;;30.10;76.20;;;28.95;33.03;95482.81;10488019;28;2197;-81
2021/07/23 14:06:33;;;;;;;;;;;30.10;75.20;;;28.06;34.83;95485.56;10462615;28;2015;-83
2021/07/23 14:11:37;;;;;;;;;;;29.60;75.50;;;27.94;35.54;95478.47;10492876;28;2250;-83
2021/07/23 14:16:39;;;;;;;;;;;29.20;76.80;;;28.63;33.18;95480.06;10461874;28;1967;-79
2021/07/23 14:21:43;;;;;;;;;;;29.20;76.40;;;29.12;32.62;95465.34;10478252;28;2046;-81
2021/07/23 14:26:47;;;;;;;;;;;29.70;75.10;;;29.34;32.49;95466.84;10489224;28;1872;-83
2021/07/23 14:31:55;;;;;;;;;;;30.10;74.60;;;29.68;33.08;95451.66;10485362;28;2336;-82
2021/07/23 14:36:58;;;;;;;;;;;30.50;75.20;;;28.14;35.24;95462.31;10479828;28;2300;-81
2021/07/23 14:42:05;;;;;;;;;;;29.70;74.70;;;27.60;35.79;95456.66;10492508;28;2415;-81
2021/07/23 14:47:08;;;;;;;;;;;28.60;76.10;;;27.54;36.86;95454.69;10460530;28;2650;-83
2021/07/23 14:52:12;;;;;;;;;;;28.60;77.50;;;28.34;34.74;95457.19;10471918;28;2363;-80
2021/07/23 14:57:16;;;;;;;;;;;28.90;75.90;;;28.13;33.60;95466.25;10461619;28;2390;-81
2021/07/23 15:02:21;;;;;;;;;;;29.00;74.90;;;29.00;31.49;95441.66;10461083;28;2387;-80
2021/07/23 15:07:33;;;;;;;;;;;29.50;73.20;;;29.46;31.44;95435.16;10468249;28;3140;-81
2021/07/23 15:12:38;;;;;;;;;;;30.00;73.40;;;29.69;30.96;95453.22;10480689;28;2673;-79
2021/07/23 15:17:50;;;;;;;;;;;30.40;72.00;;;29.47;30.31;95445.03;10459144;28;2386;-81
2021/07/23 15:23:00;;;;;;;;;;;30.50;70.30;;;29.50;31.09;95435.91;10497553;28;2230;-80
2021/07/23 15:28:03;;;;;;;;;;;30.50;71.00;;;29.35;31.17;95439.94;10468249;28;2361;-82
2021/07/23 15:33:06;;;;;;;;;;;30.30;70.20;;;29.56;29.82;95439.84;10447592;28;2141;-83
2021/07/23 15:38:08;;;;;;;;;;;30.40;69.30;;;29.08;29.94;95429.41;10446899;28;2390;-82
2021/07/23 15:43:11;;;;;;;;;;;30.30;68.20;;;29.74;30.71;95422.34;10462286;22;2479;-82
2021/07/23 15:48:15;;;;;;;;;;;30.30;70.20;;;29.01;33.16;95421.13;10336849;28;2280;-83
2021/07/23 15:53:17;;;;;;;;;;;30.20;71.80;;;28.35;34.63;95429.16;10342113;28;2336;-80
2021/07/23 15:58:34;;;;;;;;;;;29.70;72.70;;;27.98;35.59;95427.56;10365119;28;2304;-79
2021/07/23 16:03:37;;;;;;;;;;;29.30;74.20;;;27.41;37.33;95416.41;10350640;28;3134;-83
2021/07/23 16:08:40;;;;;;;;;;;28.90;75.20;;;27.56;35.86;95413.69;10342491;28;2396;-80
2021/07/23 16:13:43;;;;;;;;;;;28.60;74.90;;;27.65;35.68;95405.81;10342950;28;2350;-79
2021/07/23 16:18:47;;;;;;;;;;;28.20;75.50;;;27.13;36.95;95405.28;10341216;28;2716;-80
2021/07/23 16:23:55;;;;;;;;;;;28.10;75.80;;;26.87;37.61;95401.63;10345020;28;2023;-79
2021/07/23 16:28:58;;;;;;;;;;;28.00;76.80;;;27.11;36.81;95396.63;10350056;28;2289;-81
2021/07/23 16:34:04;;;;;;;;;;;27.80;76.30;;;26.90;37.24;95398.06;10344184;28;2340;-81
2021/07/23 16:39:07;;;;;;;;;;;27.90;76.30;;;27.00;37.65;95384.72;10362516;28;2065;-82
2021/07/23 16:44:10;;;;;;;;;;;27.90;76.80;;;26.54;38.40;95377.06;10365569;28;2343;-83
2021/07/23 16:49:14;;;;;;;;;;;27.60;76.60;;;26.59;39.13;95380.25;10349600;28;2322;-83
2021/07/23 16:54:16;;;;;;;;;;;27.60;77.60;;;26.54;38.40;95386.13;10356682;28;2324;-82
2021/07/23 16:59:19;;;;;;;;;;;27.40;77.30;;;26.32;38.87;95376.88;10361445;28;2291;-83
2021/07/23 17:04:22;;;;;;;;;;;27.40;78.10;;;26.29;38.80;95374.13;10361935;28;2391;-82
2021/07/23 17:09:25;;;;;;;;;;;27.10;78.30;;;26.04;40.32;95376.72;10391149;28;1977;-81
2021/07/23 17:14:28;;;;;;;;;;;27.10;79.30;;;26.14;40.15;95378.75;10363286;28;2387;-83
2021/07/23 17:19:31;;;;;;;;;;;27.00;79.70;;;26.32;39.69;95376.09;10368011;28;2380;-81
2021/07/23 17:24:34;;;;;;;;;;;27.00;79.40;;;26.34;39.15;95368.25;10359665;28;1351;-78
2021/07/23 17:29:37;;;;;;;;;;;27.10;79.10;;;26.16;40.24;95364.59;10378046;28;2171;-80
2021/07/23 17:34:51;;;;;;;;;;;27.00;80.00;;;26.20;40.80;95366.19;10356448;28;2285;-79
2021/07/23 17:39:54;;;;;;;;;;;26.90;80.10;;;26.01;40.55;95369.22;10363697;28;1739;-86
2021/07/23 17:45:17;;;;;;;;;;;26.90;79.70;;;25.92;40.54;95366.00;10353836;28;2422;-82
2021/07/23 17:50:20;;;;;;;;;;;26.80;79.90;;;25.82;40.79;95368.28;10362590;28;1918;-84
2021/07/23 17:55:27;;;;;;;;;;;26.70;80.40;;;25.75;41.36;95364.69;10344602;28;2246;-80
2021/07/23 18:00:29;;;;;;;;;;;26.60;80.80;;;25.55;41.91;95367.63;10357805;28;1367;-80
2021/07/23 18:05:33;;;;;;;;;;;26.50;81.20;;;25.46;41.85;95367.19;10373626;28;1611;-80
2021/07/23 18:10:36;;;;;;;;;;;26.30;81.60;;;25.33;42.40;95369.41;10373041;28;2284;-83
2021/07/23 18:15:39;;;;;;;;;;;26.20;82.10;;;25.10;43.17;95360.53;10368363;28;2444;-81
2021/07/23 18:20:41;;;;;;;;;;;26.10;82.60;;;24.92;43.73;95360.28;10365637;28;1738;-86
2021/07/23 18:25:44;;;;;;;;;;;25.90;82.90;;;24.80;44.21;95361.34;10362290;28;2330;-84
2021/07/23 18:30:47;;;;;;;;;;;25.70;83.50;;;24.61;44.84;95361.50;10355778;28;2512;-84
2021/07/23 18:35:50;;;;;;;;;;;25.60;84.30;;;24.42;45.56;95359.69;10346463;28;2399;-82
2021/07/23 18:40:53;;;;;;;;;;;25.50;85.00;;;24.26;45.51;95367.28;10348856;28;2522;-81
2021/07/23 18:45:56;;;;;;;;;;;25.30;85.10;;;24.09;45.88;95360.38;10351033;28;2360;-82
2021/07/23 18:50:59;;;;;;;;;;;25.10;85.70;;;23.94;46.32;95364.09;10353224;28;2251;-82
2021/07/23 18:56:02;;;;;;;;;;;24.90;86.10;;;23.81;46.52;95363.50;10349278;28;2788;-83
2021/07/23 19:01:07;;;;;;;;;;;24.80;86.50;;;23.60;47.30;95363.09;10352730;28;2405;-81
2021/07/23 19:06:12;;;;;;;;;;;24.60;87.20;;;23.43;47.89;95353.44;10363027;28;2371;-82
2021/07/23 19:11:17;;;;;;;;;;;24.40;87.80;;;23.31;48.27;95356.38;10358764;28;2779;-84
2021/07/23 19:16:23;;;;;;;;;;;24.30;88.30;;;23.12;48.88;95362.69;10347754;28;2363;-81
2021/07/23 19:21:26;;;;;;;;;;;24.10;89.00;;;22.95;49.76;95366.66;10346256;28;2353;-83
2021/07/23 19:26:37;;;;;;;;;;;24.00;89.60;;;22.80;50.30;95351.09;10362903;28;2415;-84
2021/07/23 19:31:43;;;;;;;;;;;23.80;90.30;;;22.69;50.74;95361.03;10352674;28;2359;-85
2021/07/23 19:36:48;;;;;;;;;;;23.70;90.90;;;22.57;51.11;95364.72;10343849;28;2308;-81
2021/07/23 19:41:51;;;;;;;;;;;23.50;91.50;;;22.46;51.43;95364.50;10348252;28;1334;-81
2021/07/23 19:46:53;;;;;;;;;;;23.40;92.00;;;22.24;52.26;95370.66;10350984;28;2460;-85
2021/07/23 19:51:57;;;;;;;;;;;23.30;92.50;;;22.21;52.46;95365.91;10387998;28;2494;-83
2021/07/23 19:56:59;;;;;;;;;;;23.20;93.00;;;22.05;53.01;95369.44;10390428;28;2491;-85
2021/07/23 20:02:02;;;;;;;;;;;23.10;93.60;;;21.94;53.73;95384.03;10358774;28;2894;-82
2021/07/23 20:07:05;;;;;;;;;;;23.00;94.20;;;21.98;53.63;95373.97;10347786;28;2197;-80
2021/07/23 20:12:08;;;;;;;;;;;22.90;94.60;;;21.81;54.42;95367.72;10350931;28;1974;-80
2021/07/23 20:17:11;;;;;;;;;;;22.80;95.00;;;21.72;55.10;95369.06;10339054;28;2383;-80
2021/07/23 20:22:13;;;;;;;;;;;22.70;95.60;;;21.63;55.27;95380.19;10353646;28;2614;-79
2021/07/23 20:27:16;;;;;;;;;;;22.60;96.10;;;21.56;55.57;95375.31;10335272;28;2340;-80
2021/07/23 20:32:19;;;;;;;;;;;22.50;96.70;;;21.43;55.97;95371.09;10340320;28;2665;-80
2021/07/23 20:37:22;;;;;;;;;;;22.50;97.00;;;21.36;56.43;95365.44;10344723;28;2312;-80
2021/07/23 20:42:25;;;;;;;;;;;22.40;97.30;;;21.17;57.02;95374.31;10352212;28;3475;-80
2021/07/23 20:47:28;;;;;;;;;;;22.30;97.80;;;21.18;56.68;95369.63;10353779;28;2269;-82
2021/07/23 20:52:30;;;;;;;;;;;22.20;98.00;;;21.08;56.95;95360.03;10364888;28;2302;-79
2021/07/23 20:57:33;;;;;;;;;;;22.10;98.20;;;20.97;57.62;95358.94;10357393;28;2370;-81
2021/07/23 21:02:36;;;;;;;;;;;22.00;98.60;;;20.92;57.54;95373.66;10365694;28;2208;-81
2021/07/23 21:07:39;;;;;;;;;;;21.90;99.10;;;20.90;57.29;95366.94;10376651;28;2331;-82
2021/07/23 21:12:42;;;;;;;;;;;21.90;99.00;;;20.75;58.46;95363.06;10363635;28;2399;-80
2021/07/23 21:17:44;;;;;;;;;;;21.80;99.50;;;20.98;57.66;95360.53;10386309;28;2285;-80
2021/07/23 21:22:47;;;;;;;;;;;21.80;99.70;;;20.75;58.50;95368.50;10368315;28;2080;-82
2021/07/23 21:27:51;;;;;;;;;;;21.80;99.90;;;20.65;58.64;95369.00;10355820;28;2370;-82
2021/07/23 21:32:53;;;;;;;;;;;21.60;99.90;;;20.69;58.70;95367.16;10370023;28;2554;-79
2021/07/23 21:37:58;;;;;;;;;;;21.60;99.90;;;20.78;57.62;95365.06;10356243;28;2292;-81
2021/07/23 21:43:00;;;;;;;;;;;21.70;99.90;;;20.62;57.41;95366.97;10375855;28;2365;-81
2021/07/23 21:48:03;;;;;;;;;;;21.60;99.60;;;20.57;57.64;95368.00;10361168;28;2398;-82
2021/07/23 21:53:06;;;;;;;;;;;21.50;99.70;;;20.59;57.27;95365.72;10371583;28;1996;-80
2021/07/23 21:58:09;;;;;;;;;;;21.60;99.80;;;20.31;59.02;95376.59;10354183;28;2245;-80
2021/07/23 22:03:11;;;;;;;;;;;21.40;99.90;;;20.13;59.10;95375.25;10361805;28;2485;-81
2021/07/23 22:08:16;;;;;;;;;;;21.20;99.90;;;20.03;59.55;95364.81;10344034;28;2507;-79
2021/07/23 22:13:18;;;;;;;;;;;21.20;99.90;;;20.11;59.16;95369.38;10347629;28;1996;-80
2021/07/23 22:18:21;;;;;;;;;;;21.10;99.90;;;20.32;58.28;95370.00;10351123;28;2360;-81
2021/07/23 22:23:24;;;;;;;;;;;21.20;99.90;;;20.01;59.77;95367.88;10343578;28;2422;-81
2021/07/23 22:28:27;;;;;;;;;;;21.10;99.90;;;19.93;59.46;95360.63;10339027;28;2000;-81
2021/07/23 22:33:33;;;;;;;;;;;21.00;99.90;;;19.78;60.89;95366.78;10340509;28;2304;-80
2021/07/23 22:38:36;;;;;;;;;;;20.90;99.90;;;19.76;61.09;95364.41;10339445;28;2299;-79
2021/07/23 22:43:39;;;;;;;;;;;20.80;99.90;;;19.75;61.05;95360.09;10340247;28;1881;-80
2021/07/23 22:48:41;;;;;;;;;;;20.80;99.90;;;19.72;61.61;95360.75;10341995;28;2363;-79
2021/07/23 22:53:44;;;;;;;;;;;20.80;99.90;;;19.61;62.20;95351.47;10346854;28;2261;-77
2021/07/23 22:58:47;;;;;;;;;;;20.60;99.90;;;19.36;62.95;95337.00;10362178;28;1959;-80
2021/07/23 23:03:49;;;;;;;;;;;20.50;99.90;;;19.32;63.09;95342.31;10362372;28;2304;-78
2021/07/23 23:08:52;;;;;;;;;;;20.40;99.90;;;19.23;63.46;95338.91;10349440;28;2399;-79
2021/07/23 23:13:55;;;;;;;;;;;20.40;99.90;;;19.13;63.91;95329.25;10342844;28;2449;-80
2021/07/23 23:18:58;;;;;;;;;;;20.20;99.90;;;19.04;64.64;95330.50;10356017;28;2638;-79
2021/07/23 23:24:00;;;;;;;;;;;20.10;99.90;;;18.95;65.47;95332.50;10369071;28;2617;-79
2021/07/23 23:29:03;;;;;;;;;;;20.00;99.90;;;18.90;65.79;95328.88;10363247;28;2606;-79
2021/07/23 23:34:06;;;;;;;;;;;19.90;99.90;;;18.75;66.43;95326.78;10353315;28;1895;-82
2021/07/23 23:39:09;;;;;;;;;;;19.90;99.90;;;18.60;67.47;95327.41;10345204;28;2415;-80
2021/07/23 23:44:11;;;;;;;;;;;19.70;99.90;;;18.56;67.39;95321.03;10352865;28;1596;-79
2021/07/23 23:49:14;;;;;;;;;;;19.60;99.90;;;18.71;66.91;95320.44;10371733;28;1910;-80
2021/07/23 23:54:17;;;;;;;;;;;19.70;99.90;;;18.64;67.56;95301.91;10376018;28;1902;-80
2021/07/23 23:59:19;;;;;;;;;;;19.70;99.90;;;18.52;68.47;95314.69;10346668;28;1981;-80
